createdAt,value
2019-01-24T00:01:03.634Z,19.48
2019-01-24T00:06:11.456Z,24.72
2019-01-24T00:11:19.200Z,24.65
2019-01-24T00:16:27.020Z,24.44
2019-01-24T00:21:34.751Z,19.96
2019-01-24T00:26:42.547Z,20.18
2019-01-24T00:31:50.235Z,20.31
2019-01-24T00:36:58.058Z,20.94
2019-01-24T00:42:05.793Z,21.11
2019-01-24T00:47:13.578Z,20.97
2019-01-24T00:52:21.267Z,21.41
2019-01-24T00:57:29.052Z,26.57
2019-01-24T01:02:36.811Z,21.72
2019-01-24T01:07:44.679Z,22.56
2019-01-24T01:12:52.385Z,21.88
2019-01-24T01:18:00.247Z,21.90
2019-01-24T01:23:08.000Z,27.10
2019-01-24T01:28:15.950Z,28.32
2019-01-24T01:33:23.785Z,24.68
2019-01-24T01:38:31.548Z,29.22
2019-01-24T01:43:39.223Z,25.27
2019-01-24T01:48:47.154Z,23.45
2019-01-24T01:53:54.826Z,23.34
2019-01-24T01:59:02.681Z,28.55
2019-01-24T02:04:10.394Z,23.58
2019-01-24T02:09:18.185Z,23.00
2019-01-24T02:14:25.906Z,22.87
2019-01-24T02:19:33.737Z,28.04
2019-01-24T02:24:41.378Z,27.06
2019-01-24T02:29:49.282Z,22.53
2019-01-24T02:34:56.952Z,22.75
2019-01-24T02:40:04.860Z,27.38
2019-01-24T02:45:12.502Z,27.36
2019-01-24T02:50:20.386Z,22.81
2019-01-24T02:55:28.092Z,22.36
2019-01-24T03:00:35.860Z,22.09
2019-01-24T03:05:43.546Z,21.46
2019-01-24T03:10:51.346Z,21.11
2019-01-24T03:15:59.002Z,21.96
2019-01-24T03:21:06.757Z,20.10
2019-01-24T03:26:14.418Z,19.62
2019-01-24T03:31:22.283Z,20.36
2019-01-24T03:36:30.044Z,20.61
2019-01-24T03:41:37.909Z,20.30
2019-01-24T03:46:45.561Z,20.84
2019-01-24T03:51:53.325Z,21.01
2019-01-24T03:57:00.971Z,25.88
2019-01-24T04:02:08.731Z,21.05
2019-01-24T04:07:16.393Z,20.96
2019-01-24T04:12:24.073Z,24.03
2019-01-24T04:17:31.763Z,20.98
2019-01-24T04:22:39.630Z,21.25
2019-01-24T04:27:47.317Z,21.41
2019-01-24T04:32:55.141Z,20.84
2019-01-24T04:38:02.923Z,21.03
2019-01-24T04:43:10.794Z,21.29
2019-01-24T04:48:18.482Z,25.50
2019-01-24T04:53:26.289Z,20.92
2019-01-24T04:58:34.137Z,26.22
2019-01-24T05:03:41.879Z,27.22
2019-01-24T05:08:49.523Z,22.08
2019-01-24T05:13:57.266Z,21.53
2019-01-24T05:19:04.974Z,22.05
2019-01-24T05:24:12.685Z,25.72
2019-01-24T05:29:20.369Z,26.58
2019-01-24T05:34:28.163Z,21.99
2019-01-24T05:39:36.019Z,20.76
2019-01-24T05:44:43.774Z,26.55
2019-01-24T05:49:51.512Z,22.14
2019-01-24T05:54:59.307Z,19.61
2019-01-24T06:00:07.001Z,21.30
2019-01-24T06:05:14.770Z,21.89
2019-01-24T06:10:22.455Z,20.85
2019-01-24T06:15:30.160Z,21.11
2019-01-24T06:20:37.808Z,21.41
2019-01-24T06:25:45.561Z,22.40
2019-01-24T06:30:53.219Z,27.96
2019-01-24T06:36:00.978Z,28.88
2019-01-24T06:41:08.658Z,24.84
2019-01-24T06:46:16.462Z,23.42
2019-01-24T06:51:24.168Z,23.95
2019-01-24T06:56:31.986Z,23.29
2019-01-24T07:01:39.712Z,29.62
2019-01-24T07:06:47.574Z,24.72
2019-01-24T07:11:55.242Z,24.03
2019-01-24T07:17:02.994Z,24.20
2019-01-24T07:22:10.718Z,25.03
2019-01-24T07:27:18.645Z,24.45
2019-01-24T07:32:26.354Z,23.94
2019-01-24T07:37:34.245Z,23.98
2019-01-24T07:42:41.900Z,28.82
2019-01-24T07:47:49.758Z,24.20
2019-01-24T07:52:57.471Z,29.51
2019-01-24T07:58:05.286Z,30.48
2019-01-24T08:03:13.003Z,29.89
2019-01-24T08:08:22.097Z,29.66
2019-01-24T08:13:29.768Z,29.64
2019-01-24T08:18:37.725Z,29.36
2019-01-24T08:23:45.419Z,24.39
2019-01-24T08:28:53.368Z,23.93
2019-01-24T08:34:01.074Z,24.21
2019-01-24T08:39:08.883Z,24.38
2019-01-24T08:44:16.528Z,25.01
2019-01-24T08:49:24.259Z,25.03
2019-01-24T08:54:31.982Z,31.09
2019-01-24T08:59:39.760Z,31.74
2019-01-24T09:04:47.467Z,25.44
2019-01-24T09:09:55.266Z,26.30
2019-01-24T09:15:03.107Z,26.43
2019-01-24T09:20:10.894Z,26.51
2019-01-24T09:25:18.595Z,27.49
2019-01-24T09:30:26.489Z,26.05
2019-01-24T09:35:34.143Z,24.82
2019-01-24T09:40:41.935Z,25.06
2019-01-24T09:45:49.654Z,30.90
2019-01-24T09:50:57.343Z,26.61
2019-01-24T09:56:05.018Z,26.19
2019-01-24T10:01:13.048Z,24.83
2019-01-24T10:06:20.480Z,24.61
2019-01-24T10:11:28.379Z,25.14
2019-01-24T10:16:36.066Z,26.32
2019-01-24T10:21:43.985Z,25.93
2019-01-24T10:26:51.717Z,25.39
2019-01-24T10:31:59.484Z,32.20
2019-01-24T10:37:07.321Z,33.05
2019-01-24T10:42:21.462Z,32.47
2019-01-24T10:47:22.995Z,27.53
2019-01-24T10:52:20.774Z,26.28
2019-01-24T10:57:31.254Z,25.69
2019-01-24T11:02:29.063Z,26.41
2019-01-24T11:07:36.742Z,25.82
2019-01-24T11:12:44.469Z,26.06
2019-01-24T11:17:52.211Z,25.69
2019-01-24T11:22:59.946Z,25.38
2019-01-24T11:28:07.694Z,25.59
2019-01-24T11:33:15.449Z,27.04
2019-01-24T11:38:23.153Z,27.29
2019-01-24T11:43:30.903Z,25.17
2019-01-24T11:48:38.667Z,25.83
2019-01-24T11:53:52.915Z,24.58
2019-01-24T11:58:53.765Z,32.06
2019-01-24T12:04:01.555Z,30.39
2019-01-24T12:09:09.257Z,29.78
2019-01-24T12:14:16.996Z,35.12
2019-01-24T12:19:24.670Z,31.90
2019-01-24T12:24:32.450Z,30.07
2019-01-24T12:29:40.130Z,30.09
2019-01-24T12:34:47.873Z,30.20
2019-01-24T12:39:55.551Z,29.04
2019-01-24T12:45:03.314Z,35.19
2019-01-24T12:50:11.017Z,36.41
2019-01-24T12:55:18.750Z,31.57
2019-01-24T13:00:26.469Z,31.07
2019-01-24T13:05:34.229Z,29.95
2019-01-24T13:10:41.938Z,30.93
2019-01-24T13:15:49.750Z,30.64
2019-01-24T13:20:57.485Z,30.44
2019-01-24T13:26:05.342Z,30.04
2019-01-24T13:31:13.076Z,29.34
2019-01-24T13:36:20.857Z,34.10
2019-01-24T13:41:28.557Z,27.33
2019-01-24T13:46:36.258Z,26.71
2019-01-24T13:51:43.956Z,25.87
2019-01-24T13:56:56.450Z,26.49
2019-01-24T14:01:54.179Z,27.82
2019-01-24T14:07:02.002Z,27.37
2019-01-24T14:12:09.733Z,27.23
2019-01-24T14:17:17.509Z,27.86
2019-01-24T14:22:25.201Z,28.50
2019-01-24T14:27:32.966Z,27.64
2019-01-24T14:32:40.684Z,29.85
2019-01-24T14:37:48.539Z,39.05
2019-01-24T14:42:56.257Z,38.38
2019-01-24T14:48:04.030Z,31.53
2019-01-24T14:53:11.750Z,31.90
2019-01-24T14:58:19.543Z,32.75
2019-01-24T15:03:27.258Z,31.97
2019-01-24T15:08:35.050Z,33.37
2019-01-24T15:13:42.724Z,32.05
2019-01-24T15:18:50.482Z,33.34
2019-01-24T15:23:58.202Z,32.09
2019-01-24T15:29:06.071Z,33.88
2019-01-24T15:34:13.749Z,32.83
2019-01-24T15:39:21.518Z,32.33
2019-01-24T15:44:29.181Z,32.00
2019-01-24T15:49:37.004Z,31.20
2019-01-24T15:54:44.726Z,40.89
2019-01-24T15:59:52.523Z,41.54
2019-01-24T16:05:00.260Z,32.91
2019-01-24T16:10:08.051Z,36.65
2019-01-24T16:15:15.757Z,31.04
2019-01-24T16:20:23.550Z,29.56
2019-01-24T16:25:31.261Z,29.56
2019-01-24T16:30:39.024Z,30.59
2019-01-24T16:35:46.825Z,30.62
2019-01-24T16:40:54.496Z,29.25
2019-01-24T16:46:02.360Z,28.97
2019-01-24T16:51:12.195Z,35.03
2019-01-24T16:56:19.950Z,30.13
2019-01-24T17:01:27.854Z,28.74
2019-01-24T17:06:35.610Z,35.39
2019-01-24T17:11:43.484Z,29.21
2019-01-24T17:16:51.180Z,29.72
2019-01-24T17:21:58.914Z,28.52
2019-01-24T17:27:06.590Z,34.99
2019-01-24T17:32:14.350Z,29.44
2019-01-24T17:37:22.003Z,28.32
2019-01-24T17:42:29.732Z,28.69
2019-01-24T17:47:37.466Z,28.10
2019-01-24T17:52:45.208Z,34.53
2019-01-24T17:57:52.906Z,35.10
2019-01-24T18:03:00.642Z,29.22
2019-01-24T18:08:08.383Z,28.65
2019-01-24T18:13:16.172Z,27.76
2019-01-24T18:18:23.867Z,28.02
2019-01-24T18:23:31.789Z,28.45
2019-01-24T18:28:39.488Z,27.23
2019-01-24T18:33:47.360Z,33.66
2019-01-24T18:38:55.078Z,27.82
2019-01-24T18:44:02.888Z,29.02
2019-01-24T18:49:10.633Z,28.44
2019-01-24T18:54:18.892Z,27.85
2019-01-24T18:59:26.568Z,27.44
2019-01-24T19:04:34.482Z,33.22
2019-01-24T19:09:42.217Z,27.70
2019-01-24T19:14:49.988Z,28.18
2019-01-24T19:19:57.686Z,34.07
2019-01-24T19:25:05.486Z,27.67
2019-01-24T19:30:13.355Z,27.12
2019-01-24T19:35:21.124Z,33.19
2019-01-24T19:40:28.810Z,27.14
2019-01-24T19:45:36.636Z,27.46
2019-01-24T19:50:44.366Z,27.19
2019-01-24T19:55:52.063Z,25.81
2019-01-24T20:00:59.773Z,26.26
2019-01-24T20:06:07.459Z,25.91
2019-01-24T20:11:15.135Z,27.13
2019-01-24T20:16:22.944Z,26.18
2019-01-24T20:21:30.694Z,26.19
2019-01-24T20:26:38.568Z,32.40
2019-01-24T20:31:46.305Z,32.37
2019-01-24T20:36:54.276Z,32.23
2019-01-24T20:42:01.940Z,27.53
2019-01-24T20:47:09.827Z,32.42
2019-01-24T20:52:17.677Z,32.14
2019-01-24T20:57:25.458Z,32.46
2019-01-24T21:02:33.106Z,26.59
2019-01-24T21:07:41.015Z,27.41
2019-01-24T21:12:48.690Z,26.43
2019-01-24T21:17:56.525Z,26.22
2019-01-24T21:23:04.219Z,32.23
2019-01-24T21:28:12.050Z,26.17
2019-01-24T21:33:19.782Z,25.72
2019-01-24T21:38:27.492Z,31.57
2019-01-24T21:43:35.197Z,33.27
2019-01-24T21:48:43.020Z,32.40
2019-01-24T21:53:50.736Z,32.26
2019-01-24T21:58:58.510Z,32.71
2019-01-24T22:04:06.212Z,32.65
2019-01-24T22:09:13.894Z,27.19
2019-01-24T22:14:21.568Z,27.39
2019-01-24T22:19:29.332Z,26.54
2019-01-24T22:24:37.014Z,26.38
2019-01-24T22:29:44.794Z,33.92
2019-01-24T22:34:52.518Z,34.61
2019-01-24T22:40:00.330Z,28.00
2019-01-24T22:45:08.034Z,34.24
2019-01-24T22:50:15.807Z,29.13
2019-01-24T22:55:23.539Z,28.05
2019-01-24T23:00:31.458Z,28.74
2019-01-24T23:05:39.091Z,28.40
2019-01-24T23:10:46.839Z,29.59
2019-01-24T23:15:54.528Z,36.51
2019-01-24T23:21:02.223Z,36.33
2019-01-24T23:26:09.894Z,30.78
2019-01-24T23:31:17.624Z,29.74
2019-01-24T23:36:25.376Z,29.10
2019-01-24T23:41:33.222Z,36.00
2019-01-24T23:46:40.937Z,30.56
2019-01-24T23:51:48.750Z,29.65
2019-01-24T23:56:56.472Z,29.04
